createdAt,value
2017-04-28T00:00:36.662Z,20.31
2017-04-28T00:01:17.361Z,20.33
2017-04-28T00:01:58.115Z,20.41
2017-04-28T00:02:38.881Z,20.29
2017-04-28T00:03:19.600Z,20.36
2017-04-28T00:04:00.367Z,20.42
2017-04-28T00:04:41.142Z,20.39
2017-04-28T00:05:21.862Z,20.41
2017-04-28T00:06:02.619Z,20.42
2017-04-28T00:06:43.451Z,20.41
2017-04-28T00:07:24.238Z,20.38
2017-04-28T00:08:05.072Z,20.39
2017-04-28T00:08:45.852Z,20.41
2017-04-28T00:09:26.606Z,20.39
2017-04-28T00:10:07.284Z,20.21
2017-04-28T00:10:48.081Z,20.39
2017-04-28T00:11:28.834Z,20.35
2017-04-28T00:12:09.546Z,20.38
2017-04-28T00:12:50.351Z,20.35
2017-04-28T00:13:31.121Z,20.28
2017-04-28T00:14:11.942Z,20.38
2017-04-28T00:14:52.689Z,20.39
2017-04-28T00:15:33.445Z,20.36
2017-04-28T00:16:14.182Z,20.36
2017-04-28T00:16:54.928Z,20.41
2017-04-28T00:17:35.653Z,20.31
2017-04-28T00:18:16.402Z,20.36
2017-04-28T00:18:57.154Z,20.38
2017-04-28T00:19:37.897Z,20.36
2017-04-28T00:20:18.743Z,20.29
2017-04-28T00:20:59.475Z,20.31
2017-04-28T00:21:40.232Z,20.32
2017-04-28T00:22:20.920Z,20.38
2017-04-28T00:23:01.667Z,20.36
2017-04-28T00:23:42.397Z,20.29
2017-04-28T00:24:23.241Z,20.35
2017-04-28T00:25:03.997Z,20.33
2017-04-28T00:25:44.738Z,20.36
2017-04-28T00:26:25.493Z,20.28
2017-04-28T00:27:06.334Z,20.28
2017-04-28T00:27:47.081Z,20.35
2017-04-28T00:28:27.748Z,20.32
2017-04-28T00:29:08.474Z,20.32
2017-04-28T00:29:49.211Z,20.33
2017-04-28T00:30:29.922Z,20.33
2017-04-28T00:31:10.743Z,20.33
2017-04-28T00:31:51.474Z,20.36
2017-04-28T00:32:32.276Z,20.28
2017-04-28T00:33:13.083Z,20.26
2017-04-28T00:33:53.845Z,20.31
2017-04-28T00:34:34.633Z,20.31
2017-04-28T00:35:15.327Z,20.36
2017-04-28T00:35:56.081Z,20.26
2017-04-28T00:36:36.828Z,20.31
2017-04-28T00:37:17.566Z,20.26
2017-04-28T00:37:58.254Z,20.31
2017-04-28T00:38:39.002Z,20.36
2017-04-28T00:39:19.731Z,20.29
2017-04-28T00:40:00.467Z,20.35
2017-04-28T00:40:41.250Z,20.31
2017-04-28T00:41:22.032Z,20.31
2017-04-28T00:42:02.768Z,20.29
2017-04-28T00:42:43.538Z,20.32
2017-04-28T00:43:24.314Z,20.26
2017-04-28T00:44:05.056Z,20.26
2017-04-28T00:44:45.851Z,20.29
2017-04-28T00:45:26.725Z,20.29
2017-04-28T00:46:07.493Z,20.29
2017-04-28T00:46:48.271Z,20.26
2017-04-28T00:47:29.051Z,20.32
2017-04-28T00:48:09.858Z,20.28
2017-04-28T00:48:50.565Z,20.16
2017-04-28T00:49:31.317Z,20.18
2017-04-28T00:50:12.002Z,20.24
2017-04-28T00:50:52.727Z,20.21
2017-04-28T00:51:33.431Z,20.28
2017-04-28T00:52:14.275Z,20.31
2017-04-28T00:52:55.161Z,20.24
2017-04-28T00:53:35.861Z,20.17
2017-04-28T00:54:16.579Z,20.28
2017-04-28T00:54:57.341Z,20.28
2017-04-28T00:55:38.163Z,20.28
2017-04-28T00:56:18.964Z,20.23
2017-04-28T00:56:59.706Z,20.24
2017-04-28T00:57:40.502Z,20.31
2017-04-28T00:58:21.246Z,20.28
2017-04-28T00:59:01.926Z,20.24
2017-04-28T00:59:42.693Z,20.24
2017-04-28T01:00:23.443Z,20.26
2017-04-28T01:01:04.251Z,20.28
2017-04-28T01:01:45.046Z,20.28
2017-04-28T01:02:25.867Z,20.29
2017-04-28T01:03:06.604Z,20.26
2017-04-28T01:03:47.356Z,20.23
2017-04-28T01:04:28.153Z,20.24
2017-04-28T01:05:08.976Z,20.24
2017-04-28T01:05:49.696Z,20.29
2017-04-28T01:06:30.469Z,20.23
2017-04-28T01:07:11.252Z,20.29
2017-04-28T01:07:52.056Z,20.28
2017-04-28T01:08:32.778Z,20.28
2017-04-28T01:09:13.539Z,20.29
2017-04-28T01:09:54.273Z,20.28
2017-04-28T01:10:35.052Z,20.28
2017-04-28T01:11:15.855Z,20.32
2017-04-28T01:11:56.601Z,20.26
2017-04-28T01:12:37.324Z,20.29
2017-04-28T01:13:17.999Z,20.32
2017-04-28T01:13:58.745Z,20.21
2017-04-28T01:14:39.474Z,20.31
2017-04-28T01:15:20.228Z,20.29
2017-04-28T01:16:01.035Z,20.26
2017-04-28T01:16:41.794Z,20.28
2017-04-28T01:17:22.601Z,20.29
2017-04-28T01:18:03.301Z,20.23
2017-04-28T01:18:44.034Z,20.26
2017-04-28T01:19:24.881Z,20.24
2017-04-28T01:20:05.588Z,20.21
2017-04-28T01:20:46.329Z,20.24
2017-04-28T01:21:27.140Z,20.24
2017-04-28T01:22:07.871Z,20.17
2017-04-28T01:22:48.705Z,20.2
2017-04-28T01:23:29.380Z,20.21
2017-04-28T01:24:10.133Z,20.24
2017-04-28T01:24:50.977Z,20.26
2017-04-28T01:25:31.685Z,20.24
2017-04-28T01:26:12.520Z,20.32
2017-04-28T01:26:53.217Z,20.17
2017-04-28T01:27:34.028Z,20.17
2017-04-28T01:28:14.767Z,20.18
2017-04-28T01:28:55.497Z,20.24
2017-04-28T01:29:36.255Z,20.21
2017-04-28T01:30:17.016Z,20.2
2017-04-28T01:30:57.774Z,20.14
2017-04-28T01:31:38.535Z,20.24
2017-04-28T01:32:19.245Z,20.17
2017-04-28T01:33:00.070Z,20.18
2017-04-28T01:33:40.825Z,20.18
2017-04-28T01:34:21.590Z,20.2
2017-04-28T01:35:02.371Z,20.14
2017-04-28T01:35:43.265Z,20.18
2017-04-28T01:36:24.055Z,20.18
2017-04-28T01:37:04.745Z,20.21
2017-04-28T01:37:45.478Z,20.2
2017-04-28T01:38:26.300Z,20.18
2017-04-28T01:39:07.061Z,20.24
2017-04-28T01:39:47.852Z,20.14
2017-04-28T01:40:28.633Z,20.13
2017-04-28T01:41:09.448Z,20.16
2017-04-28T01:41:50.216Z,20.18
2017-04-28T01:42:30.944Z,20.2
2017-04-28T01:43:18.497Z,20.13
2017-04-28T01:43:59.277Z,20.24
2017-04-28T01:44:40.024Z,20.13
2017-04-28T01:45:20.760Z,20.17
2017-04-28T01:46:01.576Z,20.2
2017-04-28T01:46:42.262Z,20.16
2017-04-28T01:47:23.027Z,20.17
2017-04-28T01:48:03.865Z,20.2
2017-04-28T01:48:44.665Z,20.17
2017-04-28T01:49:25.409Z,20.14
2017-04-28T01:50:06.196Z,20.13
2017-04-28T01:50:46.965Z,20.16
2017-04-28T01:51:27.693Z,20.23
2017-04-28T01:52:08.421Z,20.18
2017-04-28T01:52:49.141Z,20.13
2017-04-28T01:53:29.913Z,20.11
2017-04-28T01:54:10.650Z,20.1
2017-04-28T01:54:51.462Z,20.18
2017-04-28T01:55:32.245Z,20.14
2017-04-28T01:56:13.114Z,20.11
2017-04-28T01:56:53.883Z,20.14
2017-04-28T01:57:34.653Z,20.16
2017-04-28T01:58:15.414Z,20.16
2017-04-28T01:58:56.199Z,20.18
2017-04-28T01:59:36.903Z,20.2
2017-04-28T02:00:17.653Z,20.1
2017-04-28T02:00:58.406Z,20.11
2017-04-28T02:01:39.137Z,20.16
2017-04-28T02:02:19.951Z,20.2
2017-04-28T02:03:00.859Z,20.18
2017-04-28T02:03:41.591Z,20.17
2017-04-28T02:04:22.341Z,20.13
2017-04-28T02:05:03.092Z,20.16
2017-04-28T02:05:43.914Z,20.16
2017-04-28T02:06:24.633Z,20.23
2017-04-28T02:07:05.417Z,20.14
2017-04-28T02:07:46.115Z,20.17
2017-04-28T02:08:26.932Z,20.16
2017-04-28T02:09:07.691Z,20.14
2017-04-28T02:09:48.437Z,20.21
2017-04-28T02:10:29.131Z,20.17
2017-04-28T02:11:09.892Z,20.06
2017-04-28T02:11:50.656Z,20.18
2017-04-28T02:12:31.380Z,20.21
2017-04-28T02:13:12.248Z,20.16
2017-04-28T02:13:53.044Z,20.14
2017-04-28T02:14:33.776Z,20.23
2017-04-28T02:15:14.586Z,20.14
2017-04-28T02:15:55.313Z,20.05
2017-04-28T02:16:36.088Z,20.17
2017-04-28T02:17:16.833Z,20.14
2017-04-28T02:17:57.524Z,20.16
2017-04-28T02:18:38.260Z,20.18
2017-04-28T02:19:18.996Z,20.11
2017-04-28T02:19:59.760Z,20.16
2017-04-28T02:20:40.461Z,20.06
2017-04-28T02:21:21.182Z,20.17
2017-04-28T02:22:02.013Z,20.14
2017-04-28T02:22:42.739Z,20.18
2017-04-28T02:23:23.468Z,20.18
2017-04-28T02:24:04.204Z,20.14
2017-04-28T02:24:44.914Z,20.08
2017-04-28T02:25:25.668Z,20.13
2017-04-28T02:26:06.533Z,20.2
2017-04-28T02:26:47.221Z,20.05
2017-04-28T02:27:27.963Z,20.13
2017-04-28T02:28:08.658Z,20.21
2017-04-28T02:28:49.494Z,20.1
2017-04-28T02:29:30.234Z,20.13
2017-04-28T02:30:11.078Z,20.11
2017-04-28T02:30:51.910Z,20.14
2017-04-28T02:31:32.663Z,20.11
2017-04-28T02:32:13.466Z,20.13
2017-04-28T02:32:54.162Z,20.11
2017-04-28T02:33:34.954Z,20.06
2017-04-28T02:34:15.700Z,20.13
2017-04-28T02:34:56.446Z,20.11
2017-04-28T02:35:37.186Z,19.99
2017-04-28T02:36:17.971Z,20.01
2017-04-28T02:36:58.822Z,20.13
2017-04-28T02:37:39.544Z,20.17
2017-04-28T02:38:20.291Z,20.11
2017-04-28T02:39:01.004Z,20.11
2017-04-28T02:39:41.764Z,20.06
2017-04-28T02:40:22.481Z,20.1
2017-04-28T02:41:03.260Z,20.1
2017-04-28T02:41:43.988Z,20.1
2017-04-28T02:42:24.793Z,20.02
2017-04-28T02:44:14.828Z,20.01
2017-04-28T02:44:55.594Z,20.08
2017-04-28T02:45:36.437Z,20.14
2017-04-28T02:46:17.126Z,20.03
2017-04-28T02:46:57.889Z,20.05
2017-04-28T02:47:38.657Z,20.17
2017-04-28T02:48:19.551Z,20.14
2017-04-28T02:49:00.316Z,20.05
2017-04-28T02:49:41.091Z,20.11
2017-04-28T02:50:21.873Z,20.06
2017-04-28T02:51:02.552Z,20.17
2017-04-28T02:51:43.349Z,20.11
2017-04-28T02:52:24.068Z,20.13
2017-04-28T02:53:04.814Z,20.1
2017-04-28T02:53:45.523Z,20.13
2017-04-28T02:54:26.313Z,20.08
2017-04-28T02:55:07.046Z,19.99
2017-04-28T02:55:47.782Z,20.1
2017-04-28T02:56:28.545Z,20.1
2017-04-28T02:57:09.234Z,20.08
2017-04-28T02:57:49.996Z,20.08
2017-04-28T02:58:30.801Z,20.1
2017-04-28T02:59:11.483Z,20.01
2017-04-28T02:59:52.300Z,20.03
2017-04-28T03:00:33.105Z,20.11
2017-04-28T03:01:13.852Z,20.06
2017-04-28T03:01:54.601Z,20.08
2017-04-28T03:02:35.307Z,20.11
2017-04-28T03:03:16.059Z,20.11
2017-04-28T03:03:56.859Z,20.06
2017-04-28T03:04:37.609Z,20.03
2017-04-28T03:05:18.373Z,20.03
2017-04-28T03:05:59.102Z,20.08
2017-04-28T03:06:39.856Z,20.01
2017-04-28T03:07:20.654Z,20.1
2017-04-28T03:08:01.383Z,20.03
2017-04-28T03:08:42.077Z,20.03
2017-04-28T03:09:22.812Z,20.11
2017-04-28T03:10:03.621Z,19.98
2017-04-28T03:10:44.457Z,20.05
2017-04-28T03:11:25.231Z,20.08
2017-04-28T03:12:06.000Z,20.03
2017-04-28T03:12:46.738Z,20.08
2017-04-28T03:13:42.195Z,20.02
2017-04-28T03:14:22.925Z,20.05
2017-04-28T03:15:03.692Z,20.02
2017-04-28T03:15:44.456Z,20.03
2017-04-28T03:16:25.183Z,20.13
2017-04-28T03:17:05.957Z,20.01
2017-04-28T03:17:46.702Z,19.96
2017-04-28T03:18:27.475Z,19.99
2017-04-28T03:19:08.261Z,20.11
2017-04-28T03:19:49.048Z,20.11
2017-04-28T03:20:29.809Z,20.05
2017-04-28T03:21:10.511Z,20.05
2017-04-28T03:21:51.290Z,20.01
2017-04-28T03:22:32.038Z,20.1
2017-04-28T03:23:12.751Z,20.02
2017-04-28T03:23:53.587Z,20.02
2017-04-28T03:24:34.310Z,20.05
2017-04-28T03:25:15.098Z,20.05
2017-04-28T03:25:55.911Z,20.02
2017-04-28T03:26:36.639Z,20.01
2017-04-28T03:27:17.462Z,20.01
2017-04-28T03:27:58.197Z,20.01
2017-04-28T03:28:38.913Z,20.03
2017-04-28T03:29:19.723Z,20.08
2017-04-28T03:30:00.431Z,19.99
2017-04-28T03:30:41.149Z,20.01
2017-04-28T03:31:21.884Z,20.05
2017-04-28T03:32:02.671Z,20.03
2017-04-28T03:32:43.491Z,20.01
2017-04-28T03:33:24.246Z,19.99
2017-04-28T03:34:05.031Z,20.06
2017-04-28T03:34:45.735Z,20.03
2017-04-28T03:35:26.434Z,20.05
2017-04-28T03:36:07.228Z,19.98
2017-04-28T03:36:47.991Z,20.05
2017-04-28T03:37:28.684Z,19.99
2017-04-28T03:38:09.418Z,19.99
2017-04-28T03:38:50.127Z,20.02
2017-04-28T03:39:30.898Z,19.99
2017-04-28T03:40:11.699Z,20.1
2017-04-28T03:40:52.524Z,20.02
2017-04-28T03:41:33.271Z,20.02
2017-04-28T03:42:14.075Z,19.98
2017-04-28T03:42:54.845Z,19.96
2017-04-28T03:43:35.695Z,20.06
2017-04-28T03:44:16.353Z,19.96
2017-04-28T03:44:57.170Z,20.03
2017-04-28T03:45:37.875Z,19.98
2017-04-28T03:46:18.664Z,19.99
2017-04-28T03:46:59.457Z,19.99
2017-04-28T03:47:40.213Z,19.96
2017-04-28T03:48:20.987Z,19.99
2017-04-28T03:49:01.694Z,20.05
2017-04-28T03:49:42.411Z,20.03
2017-04-28T03:50:23.163Z,20.01
2017-04-28T03:51:03.879Z,19.96
2017-04-28T03:51:44.596Z,19.98
2017-04-28T03:52:25.347Z,20.01
2017-04-28T03:53:06.073Z,19.96
2017-04-28T03:53:46.876Z,20.03
2017-04-28T03:54:27.675Z,20.02
2017-04-28T03:55:08.470Z,20.02
2017-04-28T03:55:49.304Z,20.08
2017-04-28T03:56:30.114Z,19.99
2017-04-28T03:57:10.959Z,19.95
2017-04-28T03:57:51.739Z,20.06
2017-04-28T03:58:32.456Z,19.95
2017-04-28T03:59:13.279Z,20.06
2017-04-28T03:59:54.032Z,20.02
2017-04-28T04:00:34.708Z,19.99
2017-04-28T04:01:15.437Z,19.95
2017-04-28T04:01:56.335Z,19.99
2017-04-28T04:02:37.086Z,19.91
2017-04-28T04:03:17.765Z,20.06
2017-04-28T04:03:58.515Z,20.01
2017-04-28T04:04:39.296Z,19.96
2017-04-28T04:05:19.987Z,19.99
2017-04-28T04:06:00.810Z,19.94
2017-04-28T04:06:41.514Z,19.99
2017-04-28T04:07:22.294Z,19.95
2017-04-28T04:08:02.975Z,19.95
2017-04-28T04:08:43.847Z,19.91
2017-04-28T04:09:24.595Z,19.94
2017-04-28T04:10:05.422Z,19.96
2017-04-28T04:10:46.107Z,19.98
2017-04-28T04:11:26.892Z,19.99
2017-04-28T04:12:07.723Z,19.98
2017-04-28T04:12:48.528Z,20.02
2017-04-28T04:13:32.095Z,19.99
2017-04-28T04:14:12.862Z,19.99
2017-04-28T04:14:53.650Z,19.94
2017-04-28T04:15:34.369Z,19.94
2017-04-28T04:16:15.158Z,19.99
2017-04-28T04:16:55.952Z,19.98
2017-04-28T04:17:36.738Z,19.88
2017-04-28T04:18:17.513Z,19.99
2017-04-28T04:18:58.268Z,19.95
2017-04-28T04:19:39.016Z,19.98
2017-04-28T04:20:19.756Z,19.98
2017-04-28T04:21:00.430Z,19.98
2017-04-28T04:21:41.233Z,19.92
2017-04-28T04:22:22.029Z,19.95
2017-04-28T04:23:02.746Z,20.05
2017-04-28T04:23:43.533Z,20.03
2017-04-28T04:24:24.313Z,19.92
2017-04-28T04:25:05.088Z,20.02
2017-04-28T04:25:45.835Z,20.02
2017-04-28T04:26:26.560Z,19.88
2017-04-28T04:27:07.308Z,19.95
2017-04-28T04:27:48.058Z,19.96
2017-04-28T04:28:28.887Z,20.03
2017-04-28T04:29:09.615Z,19.87
2017-04-28T04:29:50.363Z,19.94
2017-04-28T04:30:31.186Z,19.92
2017-04-28T04:31:11.934Z,19.96
2017-04-28T04:31:52.674Z,19.88
2017-04-28T04:32:33.384Z,19.92
2017-04-28T04:33:14.143Z,19.91
2017-04-28T04:33:54.929Z,19.92
2017-04-28T04:34:35.626Z,19.96
2017-04-28T04:35:16.399Z,19.92
2017-04-28T04:35:57.171Z,19.96
2017-04-28T04:36:37.914Z,19.87
2017-04-28T04:37:18.644Z,19.92
2017-04-28T04:37:59.478Z,19.91
2017-04-28T04:38:40.190Z,19.95
2017-04-28T04:39:20.957Z,19.94
2017-04-28T04:40:01.635Z,19.99
2017-04-28T04:40:42.380Z,19.91
2017-04-28T04:41:23.108Z,19.94
2017-04-28T04:42:03.852Z,19.98
2017-04-28T04:42:44.563Z,20.01
2017-04-28T04:43:25.399Z,19.95
2017-04-28T04:44:06.158Z,19.94
2017-04-28T04:44:46.976Z,19.92
2017-04-28T04:45:27.680Z,19.91
2017-04-28T04:46:08.444Z,19.88
2017-04-28T04:46:49.236Z,19.92
2017-04-28T04:47:29.952Z,19.92
2017-04-28T04:48:10.680Z,19.88
2017-04-28T04:48:51.513Z,19.95
2017-04-28T04:49:32.268Z,19.92
2017-04-28T04:50:13.031Z,19.92
2017-04-28T04:50:53.845Z,19.95
2017-04-28T04:51:34.557Z,19.94
2017-04-28T04:52:15.354Z,19.92
2017-04-28T04:52:56.157Z,19.94
2017-04-28T04:53:36.877Z,19.92
2017-04-28T04:54:17.678Z,19.92
2017-04-28T04:54:58.372Z,19.88
2017-04-28T04:55:39.119Z,19.94
2017-04-28T04:56:19.941Z,19.95
2017-04-28T04:57:00.672Z,19.88
2017-04-28T04:57:41.394Z,19.88
2017-04-28T04:58:22.171Z,19.98
2017-04-28T04:59:02.950Z,19.98
2017-04-28T04:59:43.718Z,19.92
2017-04-28T05:00:24.555Z,19.96
2017-04-28T05:01:05.293Z,19.91
2017-04-28T05:01:46.137Z,19.92
2017-04-28T05:02:26.853Z,19.98
2017-04-28T05:03:07.654Z,19.88
2017-04-28T05:03:48.421Z,19.91
2017-04-28T05:04:29.267Z,19.94
2017-04-28T05:05:10.024Z,19.88
2017-04-28T05:05:50.740Z,19.99
2017-04-28T05:06:31.451Z,19.94
2017-04-28T05:07:12.249Z,19.87
2017-04-28T05:07:52.967Z,19.92
2017-04-28T05:08:33.747Z,19.91
2017-04-28T05:09:14.545Z,19.88
2017-04-28T05:09:55.279Z,19.96
2017-04-28T05:10:35.977Z,19.87
2017-04-28T05:11:16.731Z,19.91
2017-04-28T05:11:57.546Z,19.99
2017-04-28T05:12:38.296Z,19.96
2017-04-28T05:13:18.968Z,19.91
2017-04-28T05:14:14.615Z,19.92
2017-04-28T05:14:55.266Z,19.91
2017-04-28T05:15:36.002Z,19.94
2017-04-28T05:16:16.824Z,19.94
2017-04-28T05:16:57.613Z,19.94
2017-04-28T05:17:38.364Z,19.95
2017-04-28T05:18:19.161Z,19.95
2017-04-28T05:18:59.911Z,19.87
2017-04-28T05:19:40.624Z,19.94
2017-04-28T05:20:21.358Z,19.98
2017-04-28T05:21:02.164Z,19.94
2017-04-28T05:21:42.923Z,19.96
2017-04-28T05:22:23.705Z,19.99
2017-04-28T05:23:04.477Z,19.94
2017-04-28T05:23:45.326Z,19.94
2017-04-28T05:24:26.079Z,19.92
2017-04-28T05:25:06.868Z,19.96
2017-04-28T05:25:47.627Z,19.92
2017-04-28T05:26:28.448Z,19.87
2017-04-28T05:27:09.268Z,19.88
2017-04-28T05:27:50.024Z,19.99
2017-04-28T05:28:30.710Z,19.92
2017-04-28T05:29:11.467Z,19.92
2017-04-28T05:29:52.101Z,19.94
2017-04-28T05:30:32.880Z,19.88
2017-04-28T05:31:13.714Z,19.94
2017-04-28T05:31:54.566Z,19.94
2017-04-28T05:32:35.333Z,19.98
2017-04-28T05:33:16.040Z,19.92
2017-04-28T05:33:56.728Z,19.98
2017-04-28T05:34:37.520Z,19.92
2017-04-28T05:35:18.270Z,19.91
2017-04-28T05:35:59.035Z,19.88
2017-04-28T05:36:39.767Z,19.88
2017-04-28T05:37:20.567Z,19.99
2017-04-28T05:38:01.342Z,19.95
2017-04-28T05:38:42.148Z,19.88
2017-04-28T05:39:22.781Z,19.92
2017-04-28T05:40:03.626Z,20.05
2017-04-28T05:40:44.427Z,19.98
2017-04-28T05:41:25.314Z,19.99
2017-04-28T05:42:06.011Z,19.94
2017-04-28T05:42:46.730Z,20.02
2017-04-28T05:43:27.497Z,19.98
2017-04-28T05:44:08.304Z,19.95
2017-04-28T05:44:49.012Z,20.01
2017-04-28T05:45:29.765Z,19.91
2017-04-28T05:46:10.644Z,19.87
2017-04-28T05:46:51.368Z,19.88
2017-04-28T05:47:32.105Z,19.99
2017-04-28T05:48:12.841Z,19.99
2017-04-28T05:48:53.598Z,19.92
2017-04-28T05:49:34.339Z,19.92
2017-04-28T05:50:15.149Z,19.94
2017-04-28T05:50:55.882Z,19.91
2017-04-28T05:51:36.652Z,19.96
2017-04-28T05:52:17.407Z,19.92
2017-04-28T05:52:58.213Z,19.91
2017-04-28T05:53:38.946Z,19.92
2017-04-28T05:55:54.533Z,19.92
2017-04-28T05:56:35.351Z,19.95
2017-04-28T05:57:16.159Z,19.95
2017-04-28T05:57:56.948Z,19.96
2017-04-28T05:58:37.733Z,19.91
2017-04-28T05:59:18.535Z,19.95
2017-04-28T06:00:01.083Z,19.94
2017-04-28T06:00:41.887Z,19.95
2017-04-28T06:01:22.598Z,19.99
2017-04-28T06:02:03.451Z,19.95
2017-04-28T06:02:44.272Z,19.95
2017-04-28T06:03:25.093Z,19.95
2017-04-28T06:04:05.899Z,19.94
2017-04-28T06:04:46.745Z,19.99
2017-04-28T06:05:27.498Z,19.92
2017-04-28T06:06:08.230Z,19.92
2017-04-28T06:06:49.031Z,19.92
2017-04-28T06:07:29.786Z,19.94
2017-04-28T06:08:10.528Z,19.96
2017-04-28T06:08:51.328Z,19.92
2017-04-28T06:09:32.066Z,19.96
2017-04-28T06:10:12.857Z,20.01
2017-04-28T06:10:53.591Z,19.94
2017-04-28T06:11:34.377Z,19.98
2017-04-28T06:12:15.149Z,20.03
2017-04-28T06:12:55.875Z,19.91
2017-04-28T06:13:36.680Z,19.92
2017-04-28T06:14:17.427Z,19.95
2017-04-28T06:14:58.213Z,19.99
2017-04-28T06:15:39.005Z,19.91
2017-04-28T06:16:19.744Z,19.99
2017-04-28T06:17:00.463Z,20.02
2017-04-28T06:17:41.293Z,19.98
2017-04-28T06:18:22.031Z,19.92
2017-04-28T06:19:03.299Z,19.99
2017-04-28T06:19:44.057Z,19.95
2017-04-28T06:20:24.820Z,20.02
2017-04-28T06:21:05.647Z,20.03
2017-04-28T06:21:46.319Z,20.01
2017-04-28T06:22:27.130Z,20.01
2017-04-28T06:23:07.900Z,20.02
2017-04-28T06:23:48.890Z,20.01
2017-04-28T06:24:29.652Z,19.96
2017-04-28T06:25:13.119Z,20.05
2017-04-28T06:25:53.867Z,20.03
2017-04-28T06:26:34.578Z,19.91
2017-04-28T06:27:15.393Z,20.02
2017-04-28T06:27:56.150Z,20.03
2017-04-28T06:28:36.887Z,19.99
2017-04-28T06:29:17.608Z,20.05
2017-04-28T06:29:58.380Z,20.08
2017-04-28T06:30:39.169Z,20.1
2017-04-28T06:31:19.895Z,20.06
2017-04-28T06:32:00.645Z,20.14
2017-04-28T06:32:41.426Z,20.11
2017-04-28T06:33:22.143Z,20.16
2017-04-28T06:34:02.920Z,20.2
2017-04-28T06:34:43.730Z,20.36
2017-04-28T06:35:24.471Z,20.31
2017-04-28T06:36:05.207Z,20.38
2017-04-28T06:36:45.944Z,20.48
2017-04-28T06:37:26.800Z,20.48
2017-04-28T06:38:07.619Z,20.39
2017-04-28T06:38:48.421Z,20.5
2017-04-28T06:39:29.294Z,20.5
2017-04-28T06:40:10.103Z,20.57
2017-04-28T06:40:50.806Z,20.5
2017-04-28T06:41:31.623Z,20.59
2017-04-28T06:42:12.446Z,20.58
2017-04-28T06:42:53.278Z,20.55
2017-04-28T06:43:34.005Z,20.59
2017-04-28T06:44:14.736Z,20.59
2017-04-28T06:44:55.496Z,20.66
2017-04-28T06:45:36.285Z,20.57
2017-04-28T06:46:17.044Z,20.66
2017-04-28T06:46:57.739Z,20.67
2017-04-28T06:47:38.501Z,20.72
2017-04-28T06:48:19.234Z,20.7
2017-04-28T06:48:59.970Z,20.66
2017-04-28T06:49:40.709Z,20.61
2017-04-28T06:50:21.537Z,20.69
2017-04-28T06:51:02.271Z,20.64
2017-04-28T06:51:43.038Z,20.62
2017-04-28T06:52:23.861Z,20.66
2017-04-28T06:53:04.679Z,20.66
2017-04-28T06:53:45.437Z,20.69
2017-04-28T06:54:26.227Z,20.69
2017-04-28T06:56:26.507Z,20.7
2017-04-28T06:57:07.250Z,20.72
2017-04-28T06:57:48.010Z,20.61
2017-04-28T06:58:28.771Z,20.64
2017-04-28T06:59:09.614Z,20.64
2017-04-28T06:59:50.262Z,20.69
2017-04-28T07:00:31.045Z,20.64
2017-04-28T07:01:11.711Z,20.62
2017-04-28T07:01:52.500Z,20.61
2017-04-28T07:02:33.243Z,20.61
2017-04-28T07:03:14.046Z,20.73
2017-04-28T07:03:54.766Z,20.7
2017-04-28T07:04:35.572Z,20.89
2017-04-28T07:05:16.267Z,20.94
2017-04-28T07:05:56.986Z,20.87
2017-04-28T07:06:37.690Z,20.91
2017-04-28T07:07:18.525Z,20.91
2017-04-28T07:07:59.384Z,20.95
2017-04-28T07:08:40.244Z,21.07
2017-04-28T07:09:20.972Z,21.1
2017-04-28T07:10:01.735Z,21.17
2017-04-28T07:10:42.543Z,21.22
2017-04-28T07:11:23.255Z,21.25
2017-04-28T07:12:04.027Z,21.29
2017-04-28T07:12:44.766Z,21.29
2017-04-28T07:13:25.546Z,21.31
2017-04-28T07:14:06.339Z,21.37
2017-04-28T07:14:47.099Z,21.38
2017-04-28T07:15:27.930Z,21.38
2017-04-28T07:16:08.800Z,21.42
2017-04-28T07:16:49.580Z,21.42
2017-04-28T07:17:30.336Z,21.44
2017-04-28T07:18:11.096Z,21.53
2017-04-28T07:18:51.859Z,21.56
2017-04-28T07:19:32.672Z,21.49
2017-04-28T07:20:20.301Z,21.54
2017-04-28T07:21:01.004Z,21.49
2017-04-28T07:21:41.717Z,21.44
2017-04-28T07:22:22.382Z,21.61
2017-04-28T07:23:03.113Z,21.49
2017-04-28T07:23:43.830Z,21.54
2017-04-28T07:24:24.567Z,21.65
2017-04-28T07:25:05.351Z,21.71
2017-04-28T07:25:46.123Z,21.68
2017-04-28T07:26:26.905Z,21.74
2017-04-28T07:27:07.622Z,21.83
2017-04-28T07:27:48.386Z,21.84
2017-04-28T07:28:29.121Z,21.92
2017-04-28T07:29:09.889Z,21.83
2017-04-28T07:29:50.646Z,21.9
2017-04-28T07:30:31.422Z,21.84
2017-04-28T07:31:12.121Z,21.94
2017-04-28T07:31:52.898Z,22
2017-04-28T07:32:33.692Z,21.91
2017-04-28T07:33:14.475Z,22
2017-04-28T07:33:55.231Z,21.96
2017-04-28T07:34:35.938Z,21.92
2017-04-28T07:35:16.813Z,21.94
2017-04-28T07:35:57.549Z,22.03
2017-04-28T07:36:38.338Z,22.05
2017-04-28T07:37:19.126Z,22.1
2017-04-28T07:37:59.857Z,22.17
2017-04-28T07:38:40.698Z,22.15
2017-04-28T07:39:21.446Z,22.21
2017-04-28T07:40:02.147Z,22.14
2017-04-28T07:40:42.839Z,22.2
2017-04-28T07:41:23.630Z,22.25
2017-04-28T07:42:04.396Z,22.24
2017-04-28T07:42:45.183Z,22.2
2017-04-28T07:43:26.029Z,22.27
2017-04-28T07:44:08.349Z,22.35
2017-04-28T07:44:49.194Z,22.3
2017-04-28T07:45:29.891Z,22.27
2017-04-28T07:46:10.615Z,22.3
2017-04-28T07:46:51.410Z,22.37
2017-04-28T07:47:32.095Z,22.25
2017-04-28T07:48:12.809Z,22.35
2017-04-28T07:48:53.554Z,22.37
2017-04-28T07:49:34.343Z,22.35
2017-04-28T07:50:15.122Z,22.42
2017-04-28T07:50:55.843Z,22.42
2017-04-28T07:51:36.667Z,22.46
2017-04-28T07:52:17.443Z,22.47
2017-04-28T07:52:58.222Z,22.51
2017-04-28T07:53:39.034Z,22.51
2017-04-28T07:54:19.791Z,22.52
2017-04-28T07:55:00.630Z,22.64
2017-04-28T07:55:41.369Z,22.58
2017-04-28T07:56:22.167Z,22.58
2017-04-28T07:57:02.969Z,22.54
2017-04-28T07:57:43.792Z,22.6
2017-04-28T07:58:24.667Z,22.58
2017-04-28T07:59:05.451Z,22.62
2017-04-28T07:59:46.190Z,22.55
2017-04-28T08:00:26.955Z,22.72
2017-04-28T08:01:07.677Z,22.64
2017-04-28T08:01:48.426Z,22.7
2017-04-28T08:02:29.214Z,22.68
2017-04-28T08:03:09.975Z,22.64
2017-04-28T08:03:50.714Z,22.73
2017-04-28T08:04:31.564Z,22.8
2017-04-28T08:05:12.338Z,22.76
2017-04-28T08:05:53.149Z,22.79
2017-04-28T08:06:33.888Z,22.77
2017-04-28T08:07:14.787Z,22.75
2017-04-28T08:07:55.527Z,22.8
2017-04-28T08:08:36.286Z,22.77
2017-04-28T08:09:16.990Z,22.73
2017-04-28T08:09:57.731Z,22.91
2017-04-28T08:10:38.505Z,22.82
2017-04-28T08:11:19.327Z,22.85
2017-04-28T08:12:00.006Z,22.92
2017-04-28T08:12:40.737Z,22.92
2017-04-28T08:13:21.477Z,23.01
2017-04-28T08:14:02.284Z,23.02
2017-04-28T08:14:43.139Z,22.98
2017-04-28T08:16:33.260Z,23.09
2017-04-28T08:17:14.005Z,23.12
2017-04-28T08:17:54.752Z,23.19
2017-04-28T08:18:36.046Z,23.16
2017-04-28T08:19:16.772Z,23.13
2017-04-28T08:19:57.556Z,23.19
2017-04-28T08:20:38.313Z,23.15
2017-04-28T08:21:19.127Z,23.13
2017-04-28T08:21:59.915Z,23.05
2017-04-28T08:22:40.614Z,23.1
2017-04-28T08:23:21.418Z,23.09
2017-04-28T08:24:02.103Z,23.07
2017-04-28T08:24:42.958Z,22.97
2017-04-28T08:25:23.720Z,22.98
2017-04-28T08:26:04.486Z,23.02
2017-04-28T08:26:45.232Z,22.92
2017-04-28T08:27:26.018Z,22.85
2017-04-28T08:28:06.890Z,22.83
2017-04-28T08:28:47.618Z,22.88
2017-04-28T08:29:28.348Z,22.9
2017-04-28T08:30:09.064Z,23.01
2017-04-28T08:30:49.774Z,22.97
2017-04-28T08:31:30.507Z,23.04
2017-04-28T08:32:11.196Z,23.07
2017-04-28T08:32:51.947Z,23.1
2017-04-28T08:33:39.309Z,23.17
2017-04-28T08:34:20.136Z,23.23
2017-04-28T08:35:00.876Z,23.2
2017-04-28T08:35:41.665Z,23.23
2017-04-28T08:36:22.488Z,23.2
2017-04-28T08:37:03.168Z,23.25
2017-04-28T08:37:43.971Z,23.25
2017-04-28T08:38:24.773Z,23.22
2017-04-28T08:39:05.553Z,23.13
2017-04-28T08:39:46.382Z,23.22
2017-04-28T08:40:27.218Z,23.17
2017-04-28T08:41:07.941Z,23.2
2017-04-28T08:41:48.738Z,23.12
2017-04-28T08:42:29.504Z,23.17
2017-04-28T08:43:10.289Z,23.17
2017-04-28T08:43:50.980Z,23.19
2017-04-28T08:44:31.820Z,23.12
2017-04-28T08:45:12.558Z,23.13
2017-04-28T08:45:59.950Z,23.07
2017-04-28T08:46:40.728Z,23.02
2017-04-28T08:47:21.510Z,22.98
2017-04-28T08:48:02.301Z,22.95
2017-04-28T08:48:43.081Z,22.83
2017-04-28T08:49:23.948Z,22.85
2017-04-28T08:50:04.730Z,22.85
2017-04-28T08:50:45.566Z,22.9
2017-04-28T08:51:26.356Z,22.9
2017-04-28T08:52:07.231Z,22.76
2017-04-28T08:52:47.910Z,22.82